Shoukeimaruno.3 — JI3587 — position and weather

sailwx.info

Track history (hours):
 
Tides and Currents Weather Stations Pressure Air Temp Water Temp Dewpoint Dewpoint Depression Visibility Wind Speed Wind Dir Waves Ship Positions

Shoukeimaruno.3

Last reported at 2015-Jul-26 11:08 UTC. Time now 2015-Aug-04 11:48 UTC.
Position N 34°60' E 139°28'.
Warning: this ship's position is 9 days out of date.

Length 77 m; draft 3.9 m.

Type: Cargo ship. MMSI: 431300325.

Date/timePositionNaut miles runAvg speedWind from/ knotsBaromVisibWave heightAir tempDewpointWater temp
2015-Jul-26 11:08N 34°60' E 139°28'5 8.8
2015-Jul-26 10:33N 35°02' E 139°33'1111.1
2015-Jul-26 09:33N 35°09' E 139°44'1010.3
2015-Jul-26 08:33N 35°19' E 139°43'6 6.4
2015-Jul-26 07:33N 35°24' E 139°37'0 0.0
2015-Jul-26 06:33N 35°24' E 139°37'0 0.0
2015-Jul-26 05:33N 35°24' E 139°37'0 0.0
2015-Jul-26 04:33N 35°24' E 139°37'0 0.0
2015-Jul-26 03:33N 35°24' E 139°37'0 0.0
2015-Jul-26 02:33N 35°24' E 139°37'0 0.0
2015-Jul-26 01:33N 35°24' E 139°37'0 0.0
2015-Jul-26 00:33N 35°24' E 139°37'0 0.0
2015-Jul-25 23:33N 35°24' E 139°37'2 1.9
2015-Jul-25 22:33N 35°24' E 139°40'0 0.0
2015-Jul-25 21:33N 35°24' E 139°40'0 0.0
2015-Jul-25 20:33N 35°24' E 139°40'0 0.0
2015-Jul-25 19:33N 35°24' E 139°40'0 0.0
2015-Jul-25 18:33N 35°24' E 139°40'0 0.0
2015-Jul-25 17:33N 35°24' E 139°40'0 0.0
2015-Jul-25 16:33N 35°24' E 139°40'0 0.0
2015-Jul-25 15:33N 35°24' E 139°40'0 0.0
2015-Jul-25 14:33N 35°23' E 139°40'0 0.1
2015-Jul-25 13:33N 35°24' E 139°40'0 0.0
2015-Jul-25 12:33N 35°24' E 139°40'0 0.0
2015-Jul-25 11:33N 35°24' E 139°40'0 0.0
2015-Jul-25 10:33N 35°24' E 139°40'0 0.0
2015-Jul-25 09:33N 35°24' E 139°40'0 0.0
2015-Jul-25 08:33N 35°24' E 139°40'9 8.6
2015-Jul-25 07:33N 35°17' E 139°46'1111.1
2015-Jul-25 06:33N 35°05' E 139°45'10 9.8
2015-Jul-25 05:33N 34°56' E 139°45'10 7.5
2015-Jul-25 04:13N 34°53' E 139°57'1011.0
2015-Jul-25 03:18N 34°58' E 140°07'4110.5
2015-Jul-24 23:26N 35°25' E 140°44'1011.1
2015-Jul-24 22:32N 35°33' E 140°51'1111.0
2015-Jul-24 21:30N 35°43' E 140°58'1111.6
2015-Jul-24 20:33N 35°54' E 140°59'1211.5
2015-Jul-24 19:29N 36°07' E 141°00'1111.4
2015-Jul-24 18:33N 36°17' E 141°01'1111.3
2015-Jul-24 17:33N 36°29' E 141°02'1111.4
2015-Jul-24 16:33N 36°40' E 141°03'  
2015-Jul-22 07:30N 35°53' E 140°41'0 0.0
2015-Jul-22 06:27N 35°53' E 140°41'0 0.0
2015-Jul-22 05:33N 35°53' E 140°41'0 0.0
2015-Jul-22 04:33N 35°53' E 140°41'0 0.0
2015-Jul-22 03:33N 35°53' E 140°41'0 0.0
2015-Jul-22 02:33N 35°53' E 140°41'0 0.0
2015-Jul-22 01:33N 35°53' E 140°41'0 0.0
2015-Jul-22 00:33N 35°53' E 140°41'0 0.2
2015-Jul-21 23:32N 35°53' E 140°41'16 0.3
2015-Jul-20 01:15N 35°40' E 140°53'3011.1
2015-Jul-19 22:33N 35°15' E 140°32'2210.8
2015-Jul-19 20:33N 35°01' E 140°12'1111.1
2015-Jul-19 19:32N 34°55' E 140°01'1111.2
2015-Jul-19 18:32N 34°53' E 139°47'1110.8
2015-Jul-19 17:33N 35°04' E 139°44'1110.6
2015-Jul-19 16:33N 35°14' E 139°46'1110.9
2015-Jul-19 15:33N 35°24' E 139°40'2 1.8
2015-Jul-19 14:33N 35°24' E 139°37'0 0.0
2015-Jul-19 13:33N 35°24' E 139°37'0 0.0
2015-Jul-19 12:33N 35°24' E 139°37'0 0.0
2015-Jul-19 11:33N 35°24' E 139°37'0 0.0
2015-Jul-19 10:33N 35°24' E 139°37'0 0.0
2015-Jul-19 09:33N 35°24' E 139°37'0 0.0
2015-Jul-19 08:33N 35°24' E 139°37'0 0.0
2015-Jul-19 07:33N 35°24' E 139°37'0 0.0
2015-Jul-19 06:33N 35°24' E 139°37'0 0.0
2015-Jul-19 05:33N 35°24' E 139°37'0 0.0
2015-Jul-19 04:33N 35°24' E 139°37'22 5.5
2015-Jul-19 00:33N 35°03' E 139°45'  
Track history (hours):
 
Tides and Currents Weather Stations Pressure Air Temp Water Temp Dewpoint Dewpoint Depression Visibility Wind Speed Wind Dir Waves Ship Positions

Shoukeimaruno.3

Last reported at 2015-Jul-26 11:08 UTC. Time now 2015-Aug-04 11:48 UTC.
Position N 34°60' E 139°28'.
Warning: this ship's position is 9 days out of date.

Length 77 m; draft 3.9 m.

Type: Cargo ship. MMSI: 431300325.

Date/timePositionNaut miles runAvg speedWind from/ knotsBaromVisibWave heightAir tempDewpointWater temp
2015-Jul-26 11:08N 34°60' E 139°28'5 8.8
2015-Jul-26 10:33N 35°02' E 139°33'1111.1
2015-Jul-26 09:33N 35°09' E 139°44'1010.3
2015-Jul-26 08:33N 35°19' E 139°43'6 6.4
2015-Jul-26 07:33N 35°24' E 139°37'0 0.0
2015-Jul-26 06:33N 35°24' E 139°37'0 0.0
2015-Jul-26 05:33N 35°24' E 139°37'0 0.0
2015-Jul-26 04:33N 35°24' E 139°37'0 0.0
2015-Jul-26 03:33N 35°24' E 139°37'0 0.0
2015-Jul-26 02:33N 35°24' E 139°37'0 0.0
2015-Jul-26 01:33N 35°24' E 139°37'0 0.0
2015-Jul-26 00:33N 35°24' E 139°37'0 0.0
2015-Jul-25 23:33N 35°24' E 139°37'2 1.9
2015-Jul-25 22:33N 35°24' E 139°40'0 0.0
2015-Jul-25 21:33N 35°24' E 139°40'0 0.0
2015-Jul-25 20:33N 35°24' E 139°40'0 0.0
2015-Jul-25 19:33N 35°24' E 139°40'0 0.0
2015-Jul-25 18:33N 35°24' E 139°40'0 0.0
2015-Jul-25 17:33N 35°24' E 139°40'0 0.0
2015-Jul-25 16:33N 35°24' E 139°40'0 0.0
2015-Jul-25 15:33N 35°24' E 139°40'0 0.0
2015-Jul-25 14:33N 35°23' E 139°40'0 0.1
2015-Jul-25 13:33N 35°24' E 139°40'0 0.0
2015-Jul-25 12:33N 35°24' E 139°40'0 0.0
2015-Jul-25 11:33N 35°24' E 139°40'0 0.0
2015-Jul-25 10:33N 35°24' E 139°40'0 0.0
2015-Jul-25 09:33N 35°24' E 139°40'0 0.0
2015-Jul-25 08:33N 35°24' E 139°40'9 8.6
2015-Jul-25 07:33N 35°17' E 139°46'1111.1
2015-Jul-25 06:33N 35°05' E 139°45'10 9.8
2015-Jul-25 05:33N 34°56' E 139°45'10 7.5
2015-Jul-25 04:13N 34°53' E 139°57'1011.0
2015-Jul-25 03:18N 34°58' E 140°07'4110.5
2015-Jul-24 23:26N 35°25' E 140°44'1011.1
2015-Jul-24 22:32N 35°33' E 140°51'1111.0
2015-Jul-24 21:30N 35°43' E 140°58'1111.6
2015-Jul-24 20:33N 35°54' E 140°59'1211.5
2015-Jul-24 19:29N 36°07' E 141°00'1111.4
2015-Jul-24 18:33N 36°17' E 141°01'1111.3
2015-Jul-24 17:33N 36°29' E 141°02'1111.4
2015-Jul-24 16:33N 36°40' E 141°03'  
2015-Jul-22 07:30N 35°53' E 140°41'0 0.0
2015-Jul-22 06:27N 35°53' E 140°41'0 0.0
2015-Jul-22 05:33N 35°53' E 140°41'0 0.0
2015-Jul-22 04:33N 35°53' E 140°41'0 0.0
2015-Jul-22 03:33N 35°53' E 140°41'0 0.0
2015-Jul-22 02:33N 35°53' E 140°41'0 0.0
2015-Jul-22 01:33N 35°53' E 140°41'0 0.0
2015-Jul-22 00:33N 35°53' E 140°41'0 0.2
2015-Jul-21 23:32N 35°53' E 140°41'16 0.3
2015-Jul-20 01:15N 35°40' E 140°53'3011.1
2015-Jul-19 22:33N 35°15' E 140°32'2210.8
2015-Jul-19 20:33N 35°01' E 140°12'1111.1
2015-Jul-19 19:32N 34°55' E 140°01'1111.2
2015-Jul-19 18:32N 34°53' E 139°47'1110.8
2015-Jul-19 17:33N 35°04' E 139°44'1110.6
2015-Jul-19 16:33N 35°14' E 139°46'1110.9
2015-Jul-19 15:33N 35°24' E 139°40'2 1.8
2015-Jul-19 14:33N 35°24' E 139°37'0 0.0
2015-Jul-19 13:33N 35°24' E 139°37'0 0.0
2015-Jul-19 12:33N 35°24' E 139°37'0 0.0
2015-Jul-19 11:33N 35°24' E 139°37'0 0.0
2015-Jul-19 10:33N 35°24' E 139°37'0 0.0
2015-Jul-19 09:33N 35°24' E 139°37'0 0.0
2015-Jul-19 08:33N 35°24' E 139°37'0 0.0
2015-Jul-19 07:33N 35°24' E 139°37'0 0.0
2015-Jul-19 06:33N 35°24' E 139°37'0 0.0
2015-Jul-19 05:33N 35°24' E 139°37'0 0.0
2015-Jul-19 04:33N 35°24' E 139°37'22 5.5
2015-Jul-19 00:33N 35°03' E 139°45'  

Dump ship's entire track history